sensor_id;sensor_type;location;lat;lon;timestamp;P1;durP1;ratioP1;P2;durP2;ratioP2
49147;SDS011;41980;45.550;12.070;2022-10-17T00:01:37;22.23;;;15.85;;
49147;SDS011;41980;45.550;12.070;2022-10-17T00:07:39;18.23;;;12.98;;
49147;SDS011;41980;45.550;12.070;2022-10-17T00:13:41;21.52;;;14.50;;
49147;SDS011;41980;45.550;12.070;2022-10-17T00:19:44;21.15;;;16.15;;
49147;SDS011;41980;45.550;12.070;2022-10-17T00:25:46;22.65;;;15.23;;
49147;SDS011;41980;45.550;12.070;2022-10-17T00:31:48;19.33;;;14.30;;
49147;SDS011;41980;45.550;12.070;2022-10-17T00:37:50;23.08;;;16.15;;
49147;SDS011;41980;45.550;12.070;2022-10-17T00:43:54;27.15;;;18.88;;
49147;SDS011;41980;45.550;12.070;2022-10-17T00:49:57;22.80;;;15.95;;
49147;SDS011;41980;45.550;12.070;2022-10-17T00:56:02;29.45;;;19.75;;
49147;SDS011;41980;45.550;12.070;2022-10-17T01:02:05;29.15;;;21.35;;
49147;SDS011;41980;45.550;12.070;2022-10-17T01:08:09;20.25;;;14.98;;
49147;SDS011;41980;45.550;12.070;2022-10-17T01:38:48;14.48;;;10.45;;
49147;SDS011;41980;45.550;12.070;2022-10-17T01:44:58;21.17;;;14.63;;
49147;SDS011;41980;45.550;12.070;2022-10-17T01:51:07;20.13;;;14.05;;
49147;SDS011;41980;45.550;12.070;2022-10-17T01:57:19;26.90;;;18.33;;
49147;SDS011;41980;45.550;12.070;2022-10-17T02:03:24;23.40;;;17.65;;
49147;SDS011;41980;45.550;12.070;2022-10-17T02:09:29;24.83;;;18.23;;
49147;SDS011;41980;45.550;12.070;2022-10-17T02:21:42;23.63;;;16.33;;
49147;SDS011;41980;45.550;12.070;2022-10-17T02:27:51;20.95;;;15.52;;
49147;SDS011;41980;45.550;12.070;2022-10-17T02:34:00;17.93;;;13.33;;
49147;SDS011;41980;45.550;12.070;2022-10-17T02:40:06;26.33;;;20.05;;
49147;SDS011;41980;45.550;12.070;2022-10-17T02:46:13;21.13;;;15.20;;
49147;SDS011;41980;45.550;12.070;2022-10-17T02:58:33;32.78;;;22.42;;
49147;SDS011;41980;45.550;12.070;2022-10-17T03:04:38;23.13;;;16.05;;
49147;SDS011;41980;45.550;12.070;2022-10-17T03:10:45;27.33;;;19.88;;
49147;SDS011;41980;45.550;12.070;2022-10-17T03:16:48;21.23;;;15.98;;
49147;SDS011;41980;45.550;12.070;2022-10-17T03:22:52;22.25;;;16.08;;
49147;SDS011;41980;45.550;12.070;2022-10-17T03:28:54;21.25;;;15.60;;
49147;SDS011;41980;45.550;12.070;2022-10-17T03:34:57;28.98;;;19.67;;
49147;SDS011;41980;45.550;12.070;2022-10-17T03:41:00;24.15;;;16.42;;
49147;SDS011;41980;45.550;12.070;2022-10-17T03:47:04;30.95;;;22.95;;
49147;SDS011;41980;45.550;12.070;2022-10-17T03:53:06;27.83;;;18.98;;
49147;SDS011;41980;45.550;12.070;2022-10-17T03:59:11;25.77;;;18.20;;
49147;SDS011;41980;45.550;12.070;2022-10-17T04:05:16;22.38;;;15.32;;
49147;SDS011;41980;45.550;12.070;2022-10-17T04:11:19;19.50;;;14.25;;
49147;SDS011;41980;45.550;12.070;2022-10-17T04:17:23;31.35;;;22.45;;
49147;SDS011;41980;45.550;12.070;2022-10-17T04:23:25;21.85;;;15.55;;
49147;SDS011;41980;45.550;12.070;2022-10-17T04:29:33;23.95;;;17.58;;
49147;SDS011;41980;45.550;12.070;2022-10-17T04:35:41;25.33;;;17.95;;
49147;SDS011;41980;45.550;12.070;2022-10-17T04:41:44;25.83;;;17.63;;
49147;SDS011;41980;45.550;12.070;2022-10-17T04:47:46;36.20;;;23.73;;
49147;SDS011;41980;45.550;12.070;2022-10-17T04:53:48;22.65;;;15.73;;
49147;SDS011;41980;45.550;12.070;2022-10-17T04:59:50;20.25;;;14.48;;
49147;SDS011;41980;45.550;12.070;2022-10-17T05:06:01;29.55;;;19.60;;
49147;SDS011;41980;45.550;12.070;2022-10-17T05:12:05;22.27;;;15.30;;
49147;SDS011;41980;45.550;12.070;2022-10-17T05:18:07;18.13;;;13.10;;
49147;SDS011;41980;45.550;12.070;2022-10-17T05:24:12;15.75;;;10.73;;
49147;SDS011;41980;45.550;12.070;2022-10-17T05:30:15;24.00;;;14.65;;
49147;SDS011;41980;45.550;12.070;2022-10-17T05:36:18;24.92;;;17.90;;
49147;SDS011;41980;45.550;12.070;2022-10-17T05:42:21;20.67;;;13.88;;
49147;SDS011;41980;45.550;12.070;2022-10-17T05:48:24;20.80;;;14.95;;
49147;SDS011;41980;45.550;12.070;2022-10-17T05:54:26;15.18;;;10.57;;
49147;SDS011;41980;45.550;12.070;2022-10-17T06:00:30;20.58;;;14.68;;
49147;SDS011;41980;45.550;12.070;2022-10-17T06:06:35;16.52;;;12.63;;
49147;SDS011;41980;45.550;12.070;2022-10-17T06:12:38;21.92;;;15.35;;
49147;SDS011;41980;45.550;12.070;2022-10-17T06:18:40;20.42;;;14.60;;
49147;SDS011;41980;45.550;12.070;2022-10-17T06:24:42;20.65;;;14.68;;
49147;SDS011;41980;45.550;12.070;2022-10-17T06:30:46;24.10;;;16.52;;
49147;SDS011;41980;45.550;12.070;2022-10-17T06:36:49;29.23;;;20.17;;
49147;SDS011;41980;45.550;12.070;2022-10-17T06:42:53;22.60;;;16.60;;
49147;SDS011;41980;45.550;12.070;2022-10-17T06:48:58;29.10;;;19.75;;
49147;SDS011;41980;45.550;12.070;2022-10-17T06:55:04;22.27;;;17.17;;
49147;SDS011;41980;45.550;12.070;2022-10-17T07:01:16;22.45;;;16.33;;
49147;SDS011;41980;45.550;12.070;2022-10-17T07:07:20;18.67;;;13.30;;
49147;SDS011;41980;45.550;12.070;2022-10-17T07:13:23;16.00;;;11.10;;
49147;SDS011;41980;45.550;12.070;2022-10-17T07:19:26;14.68;;;10.43;;
49147;SDS011;41980;45.550;12.070;2022-10-17T07:25:28;21.38;;;14.98;;
49147;SDS011;41980;45.550;12.070;2022-10-17T07:31:35;19.58;;;14.00;;
49147;SDS011;41980;45.550;12.070;2022-10-17T07:37:38;23.50;;;19.08;;
49147;SDS011;41980;45.550;12.070;2022-10-17T07:43:40;23.10;;;17.45;;
49147;SDS011;41980;45.550;12.070;2022-10-17T07:49:44;21.70;;;17.25;;
49147;SDS011;41980;45.550;12.070;2022-10-17T07:55:46;33.45;;;22.10;;
49147;SDS011;41980;45.550;12.070;2022-10-17T08:01:50;20.13;;;15.15;;
49147;SDS011;41980;45.550;12.070;2022-10-17T08:07:55;20.20;;;16.05;;
49147;SDS011;41980;45.550;12.070;2022-10-17T08:13:57;20.85;;;14.52;;
49147;SDS011;41980;45.550;12.070;2022-10-17T08:19:59;14.73;;;11.70;;
49147;SDS011;41980;45.550;12.070;2022-10-17T08:26:02;15.77;;;10.98;;
49147;SDS011;41980;45.550;12.070;2022-10-17T08:32:08;25.55;;;19.52;;
49147;SDS011;41980;45.550;12.070;2022-10-17T08:38:13;21.77;;;16.23;;
49147;SDS011;41980;45.550;12.070;2022-10-17T08:56:28;23.73;;;13.80;;
49147;SDS011;41980;45.550;12.070;2022-10-17T09:08:45;19.92;;;14.27;;
49147;SDS011;41980;45.550;12.070;2022-10-17T09:33:26;27.67;;;20.52;;
49147;SDS011;41980;45.550;12.070;2022-10-17T09:39:30;19.55;;;14.52;;
49147;SDS011;41980;45.550;12.070;2022-10-17T09:45:34;20.67;;;16.88;;
49147;SDS011;41980;45.550;12.070;2022-10-17T09:51:44;15.88;;;12.63;;
49147;SDS011;41980;45.550;12.070;2022-10-17T10:10:07;16.48;;;13.25;;
49147;SDS011;41980;45.550;12.070;2022-10-17T10:16:21;23.92;;;19.25;;
49147;SDS011;41980;45.550;12.070;2022-10-17T10:22:30;12.05;;;9.77;;
49147;SDS011;41980;45.550;12.070;2022-10-17T10:28:34;30.20;;;23.70;;
49147;SDS011;41980;45.550;12.070;2022-10-17T10:34:40;20.15;;;16.85;;
49147;SDS011;41980;45.550;12.070;2022-10-17T10:40:50;22.25;;;18.33;;
49147;SDS011;41980;45.550;12.070;2022-10-17T10:59:21;23.05;;;16.65;;
49147;SDS011;41980;45.550;12.070;2022-10-17T11:05:36;19.33;;;15.80;;
49147;SDS011;41980;45.550;12.070;2022-10-17T11:11:45;23.50;;;16.50;;
49147;SDS011;41980;45.550;12.070;2022-10-17T11:24:04;32.10;;;23.95;;
49147;SDS011;41980;45.550;12.070;2022-10-17T11:30:15;18.77;;;15.10;;
49147;SDS011;41980;45.550;12.070;2022-10-17T11:36:18;26.33;;;20.40;;
49147;SDS011;41980;45.550;12.070;2022-10-17T11:42:29;16.08;;;13.05;;
49147;SDS011;41980;45.550;12.070;2022-10-17T11:48:38;26.80;;;21.15;;
49147;SDS011;41980;45.550;12.070;2022-10-17T11:54:47;23.92;;;19.20;;
49147;SDS011;41980;45.550;12.070;2022-10-17T12:07:06;16.13;;;12.57;;
49147;SDS011;41980;45.550;12.070;2022-10-17T12:19:22;12.38;;;9.80;;
49147;SDS011;41980;45.550;12.070;2022-10-17T12:25:27;16.10;;;12.73;;
49147;SDS011;41980;45.550;12.070;2022-10-17T12:31:33;26.77;;;21.75;;
49147;SDS011;41980;45.550;12.070;2022-10-17T12:37:58;17.33;;;12.27;;
49147;SDS011;41980;45.550;12.070;2022-10-17T12:56:21;20.92;;;16.55;;
49147;SDS011;41980;45.550;12.070;2022-10-17T13:02:34;19.23;;;13.48;;
49147;SDS011;41980;45.550;12.070;2022-10-17T13:08:38;15.25;;;13.02;;
49147;SDS011;41980;45.550;12.070;2022-10-17T13:14:49;36.15;;;28.27;;
49147;SDS011;41980;45.550;12.070;2022-10-17T13:20:53;17.15;;;13.43;;
49147;SDS011;41980;45.550;12.070;2022-10-17T13:26:59;15.27;;;11.55;;
49147;SDS011;41980;45.550;12.070;2022-10-17T13:33:02;13.25;;;11.05;;
49147;SDS011;41980;45.550;12.070;2022-10-17T13:39:20;23.00;;;17.88;;
49147;SDS011;41980;45.550;12.070;2022-10-17T13:51:32;12.93;;;9.60;;
49147;SDS011;41980;45.550;12.070;2022-10-17T13:57:35;12.52;;;9.63;;
49147;SDS011;41980;45.550;12.070;2022-10-17T14:03:37;9.77;;;7.85;;
49147;SDS011;41980;45.550;12.070;2022-10-17T14:09:44;11.88;;;9.73;;
49147;SDS011;41980;45.550;12.070;2022-10-17T14:15:47;10.68;;;7.82;;
49147;SDS011;41980;45.550;12.070;2022-10-17T14:21:52;12.40;;;9.48;;
49147;SDS011;41980;45.550;12.070;2022-10-17T14:40:22;10.43;;;8.30;;
49147;SDS011;41980;45.550;12.070;2022-10-17T14:46:26;11.95;;;8.90;;
49147;SDS011;41980;45.550;12.070;2022-10-17T14:52:29;11.70;;;8.95;;
49147;SDS011;41980;45.550;12.070;2022-10-17T14:58:32;11.48;;;9.05;;
49147;SDS011;41980;45.550;12.070;2022-10-17T15:04:35;8.18;;;6.25;;
49147;SDS011;41980;45.550;12.070;2022-10-17T15:10:37;8.80;;;6.85;;
49147;SDS011;41980;45.550;12.070;2022-10-17T15:16:42;9.40;;;6.95;;
49147;SDS011;41980;45.550;12.070;2022-10-17T15:22:44;8.02;;;6.03;;
49147;SDS011;41980;45.550;12.070;2022-10-17T15:28:46;12.45;;;8.18;;
49147;SDS011;41980;45.550;12.070;2022-10-17T15:34:50;8.15;;;6.35;;
49147;SDS011;41980;45.550;12.070;2022-10-17T15:40:54;7.60;;;5.35;;
49147;SDS011;41980;45.550;12.070;2022-10-17T15:46:56;8.07;;;5.80;;
49147;SDS011;41980;45.550;12.070;2022-10-17T15:52:58;7.55;;;5.25;;
49147;SDS011;41980;45.550;12.070;2022-10-17T15:59:02;6.63;;;5.13;;
49147;SDS011;41980;45.550;12.070;2022-10-17T16:05:09;7.43;;;5.95;;
49147;SDS011;41980;45.550;12.070;2022-10-17T16:17:25;7.50;;;5.60;;
49147;SDS011;41980;45.550;12.070;2022-10-17T16:23:27;7.85;;;5.93;;
49147;SDS011;41980;45.550;12.070;2022-10-17T16:29:29;7.38;;;5.35;;
49147;SDS011;41980;45.550;12.070;2022-10-17T16:35:32;8.00;;;6.03;;
49147;SDS011;41980;45.550;12.070;2022-10-17T16:41:35;7.95;;;5.90;;
49147;SDS011;41980;45.550;12.070;2022-10-17T16:47:39;9.52;;;7.25;;
49147;SDS011;41980;45.550;12.070;2022-10-17T16:53:43;7.55;;;5.93;;
49147;SDS011;41980;45.550;12.070;2022-10-17T16:59:46;12.98;;;8.88;;
49147;SDS011;41980;45.550;12.070;2022-10-17T17:05:49;10.38;;;7.60;;
49147;SDS011;41980;45.550;12.070;2022-10-17T17:11:52;9.27;;;7.00;;
49147;SDS011;41980;45.550;12.070;2022-10-17T17:17:54;10.10;;;7.25;;
49147;SDS011;41980;45.550;12.070;2022-10-17T17:23:57;11.25;;;7.93;;
49147;SDS011;41980;45.550;12.070;2022-10-17T17:30:00;10.90;;;7.85;;
49147;SDS011;41980;45.550;12.070;2022-10-17T17:36:02;9.45;;;7.57;;
49147;SDS011;41980;45.550;12.070;2022-10-17T17:42:04;8.93;;;6.65;;
49147;SDS011;41980;45.550;12.070;2022-10-17T17:48:06;11.82;;;8.77;;
49147;SDS011;41980;45.550;12.070;2022-10-17T17:54:08;11.65;;;8.10;;
49147;SDS011;41980;45.550;12.070;2022-10-17T18:00:12;13.20;;;9.13;;
49147;SDS011;41980;45.550;12.070;2022-10-17T18:06:15;9.80;;;7.25;;
49147;SDS011;41980;45.550;12.070;2022-10-17T18:12:18;12.25;;;8.80;;
49147;SDS011;41980;45.550;12.070;2022-10-17T18:18:20;13.07;;;8.75;;
49147;SDS011;41980;45.550;12.070;2022-10-17T18:24:22;12.60;;;8.98;;
49147;SDS011;41980;45.550;12.070;2022-10-17T18:30:24;11.75;;;8.23;;
49147;SDS011;41980;45.550;12.070;2022-10-17T18:36:26;14.40;;;10.05;;
49147;SDS011;41980;45.550;12.070;2022-10-17T18:42:29;15.45;;;10.73;;
49147;SDS011;41980;45.550;12.070;2022-10-17T18:48:32;14.77;;;11.00;;
49147;SDS011;41980;45.550;12.070;2022-10-17T18:54:35;16.45;;;11.48;;
49147;SDS011;41980;45.550;12.070;2022-10-17T19:00:37;13.52;;;9.77;;
49147;SDS011;41980;45.550;12.070;2022-10-17T19:06:41;17.35;;;11.98;;
49147;SDS011;41980;45.550;12.070;2022-10-17T19:12:43;17.50;;;11.52;;
49147;SDS011;41980;45.550;12.070;2022-10-17T19:24:51;16.95;;;11.98;;
49147;SDS011;41980;45.550;12.070;2022-10-17T19:30:54;22.75;;;15.20;;
49147;SDS011;41980;45.550;12.070;2022-10-17T19:36:59;23.38;;;14.70;;
49147;SDS011;41980;45.550;12.070;2022-10-17T19:43:01;25.63;;;16.38;;
49147;SDS011;41980;45.550;12.070;2022-10-17T19:49:04;22.77;;;14.68;;
49147;SDS011;41980;45.550;12.070;2022-10-17T19:55:06;27.42;;;17.77;;
49147;SDS011;41980;45.550;12.070;2022-10-17T20:01:09;26.65;;;17.80;;
49147;SDS011;41980;45.550;12.070;2022-10-17T20:07:14;23.17;;;15.07;;
49147;SDS011;41980;45.550;12.070;2022-10-17T20:13:16;22.08;;;14.13;;
49147;SDS011;41980;45.550;12.070;2022-10-17T20:19:18;21.25;;;14.48;;
49147;SDS011;41980;45.550;12.070;2022-10-17T20:25:20;24.63;;;15.75;;
49147;SDS011;41980;45.550;12.070;2022-10-17T20:31:22;23.33;;;15.88;;
49147;SDS011;41980;45.550;12.070;2022-10-17T20:37:25;34.30;;;20.63;;
49147;SDS011;41980;45.550;12.070;2022-10-17T20:43:27;27.92;;;18.30;;
49147;SDS011;41980;45.550;12.070;2022-10-17T20:49:29;35.00;;;20.02;;
49147;SDS011;41980;45.550;12.070;2022-10-17T20:55:32;31.95;;;20.42;;
49147;SDS011;41980;45.550;12.070;2022-10-17T21:01:34;26.67;;;17.48;;
49147;SDS011;41980;45.550;12.070;2022-10-17T21:07:36;31.95;;;21.17;;
49147;SDS011;41980;45.550;12.070;2022-10-17T21:13:38;24.92;;;16.70;;
49147;SDS011;41980;45.550;12.070;2022-10-17T21:19:40;23.73;;;16.55;;
49147;SDS011;41980;45.550;12.070;2022-10-17T21:25:42;27.75;;;17.00;;
49147;SDS011;41980;45.550;12.070;2022-10-17T21:31:44;22.30;;;15.25;;
49147;SDS011;41980;45.550;12.070;2022-10-17T21:37:47;21.63;;;15.10;;
49147;SDS011;41980;45.550;12.070;2022-10-17T21:43:51;22.40;;;14.68;;
49147;SDS011;41980;45.550;12.070;2022-10-17T21:49:54;22.83;;;14.57;;
49147;SDS011;41980;45.550;12.070;2022-10-17T21:55:58;18.88;;;13.35;;
49147;SDS011;41980;45.550;12.070;2022-10-17T22:02:01;21.00;;;13.82;;
49147;SDS011;41980;45.550;12.070;2022-10-17T22:08:03;19.08;;;13.13;;
49147;SDS011;41980;45.550;12.070;2022-10-17T22:14:07;20.48;;;14.35;;
49147;SDS011;41980;45.550;12.070;2022-10-17T22:20:13;23.98;;;15.32;;
49147;SDS011;41980;45.550;12.070;2022-10-17T22:26:15;20.30;;;13.35;;
49147;SDS011;41980;45.550;12.070;2022-10-17T22:32:17;24.67;;;15.98;;
49147;SDS011;41980;45.550;12.070;2022-10-17T22:38:19;33.92;;;23.33;;
49147;SDS011;41980;45.550;12.070;2022-10-17T22:44:21;32.53;;;20.50;;
49147;SDS011;41980;45.550;12.070;2022-10-17T22:50:23;27.33;;;17.55;;
49147;SDS011;41980;45.550;12.070;2022-10-17T22:56:25;22.77;;;14.48;;
49147;SDS011;41980;45.550;12.070;2022-10-17T23:02:27;19.55;;;12.23;;
49147;SDS011;41980;45.550;12.070;2022-10-17T23:08:29;23.25;;;15.82;;
49147;SDS011;41980;45.550;12.070;2022-10-17T23:14:32;16.45;;;11.82;;
49147;SDS011;41980;45.550;12.070;2022-10-17T23:20:37;19.92;;;13.10;;
49147;SDS011;41980;45.550;12.070;2022-10-17T23:26:39;21.38;;;14.18;;
49147;SDS011;41980;45.550;12.070;2022-10-17T23:32:41;27.60;;;19.23;;
49147;SDS011;41980;45.550;12.070;2022-10-17T23:38:43;21.77;;;15.05;;
49147;SDS011;41980;45.550;12.070;2022-10-17T23:44:47;14.63;;;10.65;;
49147;SDS011;41980;45.550;12.070;2022-10-17T23:50:49;25.35;;;13.80;;
49147;SDS011;41980;45.550;12.070;2022-10-17T23:56:50;14.80;;;11.25;;
